createdAt,value
2022-10-14T00:00:36.844Z,101151.31
2022-10-14T00:01:59.325Z,101155.78
2022-10-14T00:03:00.879Z,101153.13
2022-10-14T00:04:03.575Z,101155.78
2022-10-14T00:05:05.925Z,101151.41
2022-10-14T00:06:11.128Z,101146.09
2022-10-14T00:07:13.993Z,101149.75
2022-10-14T00:08:16.460Z,101154.09
2022-10-14T00:09:18.055Z,101150.44
2022-10-14T00:10:20.653Z,101149.59
2022-10-14T00:11:24.652Z,101147.78
2022-10-14T00:12:27.120Z,101142.44
2022-10-14T00:13:28.648Z,101147.78
2022-10-14T00:14:31.171Z,101145.09
2022-10-14T00:15:37.919Z,101141.47
2022-10-14T00:16:42.228Z,101142.31
2022-10-14T00:17:43.793Z,101137.94
2022-10-14T00:18:46.316Z,101140.47
2022-10-14T00:19:48.114Z,101138.78
2022-10-14T00:20:55.645Z,101130.78
2022-10-14T00:21:57.245Z,101139.66
2022-10-14T00:23:01.354Z,101139.66
2022-10-14T00:24:02.983Z,101144.13
2022-10-14T00:25:06.106Z,101132.44
2022-10-14T00:26:18.258Z,101133.47
2022-10-14T00:27:21.113Z,101137.94
2022-10-14T00:28:22.866Z,101140.75
2022-10-14T00:29:25.349Z,101140.75
2022-10-14T00:30:27.295Z,101136.41
2022-10-14T00:31:30.153Z,101136.41
2022-10-14T00:32:31.716Z,101140.06
2022-10-14T00:33:34.223Z,101133.72
2022-10-14T00:34:35.799Z,101141.75
2022-10-14T00:35:38.356Z,101132.03
2022-10-14T00:36:40.315Z,101136.41
2022-10-14T00:37:42.842Z,101132.03
2022-10-14T00:38:46.549Z,101136.41
2022-10-14T00:39:52.309Z,101128.53
2022-10-14T00:40:56.738Z,101129.38
2022-10-14T00:41:59.224Z,101134.72
2022-10-14T00:43:00.756Z,101141.75
2022-10-14T00:44:06.259Z,101134.72
2022-10-14T00:45:13.989Z,101136.41
2022-10-14T00:46:16.639Z,101130.22
2022-10-14T00:47:18.543Z,101140.06
2022-10-14T00:48:24.445Z,101141.75
2022-10-14T00:49:29.789Z,101139.19
2022-10-14T00:50:32.716Z,101136.53
2022-10-14T00:51:36.737Z,101133.00
2022-10-14T00:52:39.519Z,101133.84
2022-10-14T00:53:43.117Z,101132.88
2022-10-14T00:54:50.886Z,101133.72
2022-10-14T00:55:53.493Z,101133.72
2022-10-14T00:56:55.529Z,101127.38
2022-10-14T00:57:58.048Z,101126.56
2022-10-14T00:59:02.610Z,101130.06
2022-10-14T01:00:09.114Z,101132.72
2022-10-14T01:01:13.304Z,101130.06
2022-10-14T01:02:15.865Z,101124.72
2022-10-14T01:03:19.699Z,101128.25
2022-10-14T01:04:22.503Z,101131.75
2022-10-14T01:05:31.494Z,101128.25
2022-10-14T01:06:43.789Z,101127.38
2022-10-14T01:07:56.945Z,101129.09
2022-10-14T01:09:03.525Z,101133.72
2022-10-14T01:10:13.945Z,101133.72
2022-10-14T01:11:24.810Z,101130.22
2022-10-14T01:12:38.401Z,101134.72
2022-10-14T01:13:47.573Z,101129.38
2022-10-14T01:14:59.098Z,101127.66
2022-10-14T01:16:15.414Z,101126.81
2022-10-14T01:17:30.247Z,101118.00
2022-10-14T01:18:56.324Z,101120.66
2022-10-14T01:20:27.908Z,101112.78
2022-10-14T01:21:37.365Z,101116.44
2022-10-14T01:22:46.847Z,101115.59
2022-10-14T01:24:16.285Z,101112.09
2022-10-14T01:25:25.895Z,101110.28
2022-10-14T01:26:44.191Z,101120.94
2022-10-14T01:28:20.788Z,101109.53
2022-10-14T01:29:53.972Z,101104.38
2022-10-14T01:31:01.896Z,101106.03
2022-10-14T01:32:10.375Z,101105.19
2022-10-14T01:33:16.353Z,101099.84
2022-10-14T01:34:25.463Z,101101.53
2022-10-14T01:35:40.406Z,101098.00
2022-10-14T01:36:45.820Z,101096.19
2022-10-14T01:37:53.778Z,101090.00
2022-10-14T01:39:01.005Z,101097.16
2022-10-14T01:40:09.588Z,101089.16
2022-10-14T01:41:17.711Z,101088.34
2022-10-14T01:42:26.265Z,101082.16
2022-10-14T01:43:30.423Z,101077.78
2022-10-14T01:44:35.885Z,101085.78
2022-10-14T01:45:41.890Z,101076.81
2022-10-14T01:46:50.926Z,101073.44
2022-10-14T01:47:54.703Z,101079.63
2022-10-14T01:49:01.380Z,101070.75
2022-10-14T01:50:07.772Z,101068.09
2022-10-14T01:51:20.710Z,101070.75
2022-10-14T01:52:28.375Z,101074.28
2022-10-14T01:53:35.324Z,101069.78
2022-10-14T01:54:41.248Z,101067.28
2022-10-14T01:55:46.927Z,101068.09
2022-10-14T01:56:50.301Z,101068.09
2022-10-14T01:57:56.783Z,101074.28
2022-10-14T01:59:01.939Z,101067.28
2022-10-14T02:00:05.738Z,101070.06
2022-10-14T02:01:11.244Z,101070.06
2022-10-14T02:02:13.559Z,101065.56
2022-10-14T02:03:16.284Z,101059.50
2022-10-14T02:04:19.960Z,101066.41
2022-10-14T02:05:29.008Z,101073.72
2022-10-14T02:06:35.972Z,101064.59
2022-10-14T02:07:42.368Z,101073.44
2022-10-14T02:09:04.455Z,101069.94
2022-10-14T02:10:15.381Z,101068.25
2022-10-14T02:11:19.874Z,101064.72
2022-10-14T02:12:31.093Z,101068.38
2022-10-14T02:13:53.055Z,101063.03
2022-10-14T02:15:11.646Z,101063.03
2022-10-14T02:16:25.425Z,101063.03
2022-10-14T02:17:32.991Z,101064.84
2022-10-14T02:18:40.837Z,101063.03
2022-10-14T02:19:47.544Z,101065.69
2022-10-14T02:20:58.202Z,101057.69
2022-10-14T02:22:05.838Z,101061.09
2022-10-14T02:23:15.028Z,101060.22
2022-10-14T02:24:21.555Z,101057.69
2022-10-14T02:25:28.404Z,101062.06
2022-10-14T02:26:31.016Z,101064.72
2022-10-14T02:27:34.964Z,101062.06
2022-10-14T02:28:39.607Z,101053.91
2022-10-14T02:29:47.137Z,101052.91
2022-10-14T02:30:52.100Z,101059.09
2022-10-14T02:31:57.673Z,101054.63
2022-10-14T02:33:00.965Z,101048.44
2022-10-14T02:34:06.855Z,101051.09
2022-10-14T02:35:10.887Z,101044.78
2022-10-14T02:36:17.734Z,101051.94
2022-10-14T02:37:22.257Z,101044.78
2022-10-14T02:38:32.042Z,101039.44
2022-10-14T02:39:37.268Z,101040.41
2022-10-14T02:40:43.891Z,101048.44
2022-10-14T02:41:48.677Z,101037.75
2022-10-14T02:42:51.430Z,101043.09
2022-10-14T02:43:58.997Z,101039.56
2022-10-14T02:45:03.347Z,101036.91
2022-10-14T02:46:06.584Z,101035.25
2022-10-14T02:47:10.633Z,101037.75
2022-10-14T02:48:13.460Z,101032.41
2022-10-14T02:49:19.443Z,101030.72
2022-10-14T02:50:21.643Z,101027.06
2022-10-14T02:51:27.987Z,101024.41
2022-10-14T02:52:30.229Z,101019.06
2022-10-14T02:53:33.760Z,101016.38
2022-10-14T02:54:35.827Z,101011.06
2022-10-14T02:55:39.991Z,101022.56
2022-10-14T02:56:43.440Z,101017.25
2022-10-14T02:57:46.333Z,101008.38
2022-10-14T02:58:48.702Z,101014.69
2022-10-14T02:59:51.538Z,101009.34
2022-10-14T03:00:53.127Z,101021.72
2022-10-14T03:01:55.670Z,101013.03
2022-10-14T03:02:58.794Z,101012.03
2022-10-14T03:04:01.444Z,101023.72
2022-10-14T03:05:03.235Z,101016.56
2022-10-14T03:06:06.067Z,101023.72
2022-10-14T03:07:07.827Z,101011.34
2022-10-14T03:08:10.830Z,101011.22
2022-10-14T03:09:12.393Z,101009.34
2022-10-14T03:10:15.068Z,101011.06
2022-10-14T03:11:16.724Z,101008.38
2022-10-14T03:12:19.863Z,101012.75
2022-10-14T03:13:22.928Z,101012.75
2022-10-14T03:14:25.583Z,101015.41
2022-10-14T03:15:27.105Z,101011.06
2022-10-14T03:16:29.816Z,101011.91
2022-10-14T03:17:31.421Z,101009.06
2022-10-14T03:18:35.278Z,101002.91
2022-10-14T03:19:37.504Z,101002.06
2022-10-14T03:20:40.023Z,101003.72
2022-10-14T03:21:41.571Z,100999.41
2022-10-14T03:22:44.027Z,100993.22
2022-10-14T03:23:45.740Z,100999.53
2022-10-14T03:24:48.369Z,100988.84
2022-10-14T03:25:51.074Z,100991.50
2022-10-14T03:26:53.668Z,100989.69
2022-10-14T03:27:55.186Z,100986.06
2022-10-14T03:28:57.873Z,100986.06
2022-10-14T03:29:59.476Z,100992.38
2022-10-14T03:31:01.992Z,100992.38
2022-10-14T03:32:03.685Z,100991.38
2022-10-14T03:33:06.282Z,100994.91
2022-10-14T03:34:09.953Z,100989.69
2022-10-14T03:35:12.471Z,100996.72
2022-10-14T03:36:14.976Z,100996.72
2022-10-14T03:37:16.485Z,100994.19
2022-10-14T03:38:19.079Z,100995.03
2022-10-14T03:39:20.588Z,100996.84
2022-10-14T03:40:23.593Z,100987.88
2022-10-14T03:41:25.166Z,100995.88
2022-10-14T03:42:27.705Z,100994.19
2022-10-14T03:43:29.568Z,100996.00
2022-10-14T03:44:32.148Z,100989.84
2022-10-14T03:45:33.704Z,100983.50
2022-10-14T03:46:36.201Z,100989.69
2022-10-14T03:47:37.745Z,100987.03
2022-10-14T03:48:40.248Z,100992.25
2022-10-14T03:49:43.139Z,100990.38
2022-10-14T03:50:45.694Z,100990.53
2022-10-14T03:51:47.310Z,100987.03
2022-10-14T03:52:53.375Z,100989.69
2022-10-14T03:53:57.084Z,100988.00
2022-10-14T03:54:59.809Z,100988.84
2022-10-14T03:56:03.128Z,100982.66
2022-10-14T03:57:04.777Z,100987.19
2022-10-14T03:58:07.754Z,100988.00
2022-10-14T03:59:09.287Z,100991.69
2022-10-14T04:00:13.105Z,100990.66
2022-10-14T04:01:17.338Z,100981.00
2022-10-14T04:02:19.230Z,100982.09
2022-10-14T04:03:21.966Z,100985.63
2022-10-14T04:04:26.427Z,100993.63
2022-10-14T04:05:33.660Z,100985.63
2022-10-14T04:06:35.284Z,100986.63
2022-10-14T04:07:37.765Z,100987.44
2022-10-14T04:08:39.260Z,100979.44
2022-10-14T04:09:42.086Z,100981.00
2022-10-14T04:10:43.592Z,100982.94
2022-10-14T04:11:46.335Z,100988.16
2022-10-14T04:12:48.450Z,100981.00
2022-10-14T04:13:50.998Z,100989.00
2022-10-14T04:14:52.908Z,100994.34
2022-10-14T04:15:55.407Z,100994.34
2022-10-14T04:16:56.942Z,100997.00
2022-10-14T04:17:59.463Z,100990.66
2022-10-14T04:19:01.284Z,100987.19
2022-10-14T04:20:04.111Z,100988.00
2022-10-14T04:21:10.414Z,100984.34
2022-10-14T04:22:12.876Z,100989.56
2022-10-14T04:23:14.400Z,100979.88
2022-10-14T04:24:16.939Z,100980.72
2022-10-14T04:25:18.546Z,100985.19
2022-10-14T04:26:21.024Z,100986.06
2022-10-14T04:27:22.542Z,100980.72
2022-10-14T04:28:25.279Z,100975.38
2022-10-14T04:29:26.914Z,100979.88
2022-10-14T04:30:29.465Z,100980.72
2022-10-14T04:31:31.099Z,100973.56
2022-10-14T04:32:33.657Z,100977.03
2022-10-14T04:33:35.452Z,100979.72
2022-10-14T04:34:37.962Z,100983.22
2022-10-14T04:35:39.489Z,100979.72
2022-10-14T04:36:43.432Z,100984.06
2022-10-14T04:37:44.959Z,100972.53
2022-10-14T04:38:47.513Z,100975.22
2022-10-14T04:39:51.179Z,100973.38
2022-10-14T04:40:54.063Z,100974.38
2022-10-14T04:41:55.593Z,100967.22
2022-10-14T04:42:59.267Z,100970.88
2022-10-14T04:44:00.783Z,100978.72
2022-10-14T04:45:03.294Z,100978.72
2022-10-14T04:46:05.468Z,100973.38
2022-10-14T04:47:07.932Z,100968.06
2022-10-14T04:48:09.685Z,100974.25
2022-10-14T04:49:12.633Z,100969.03
2022-10-14T04:50:14.345Z,100967.22
2022-10-14T04:51:16.842Z,100971.69
2022-10-14T04:52:20.906Z,100962.72
2022-10-14T04:53:22.663Z,100956.53
2022-10-14T04:54:25.543Z,100968.06
2022-10-14T04:55:27.043Z,100963.69
2022-10-14T04:56:29.516Z,100956.69
2022-10-14T04:57:31.000Z,100957.38
2022-10-14T04:58:33.539Z,100959.19
2022-10-14T04:59:35.130Z,100954.03
2022-10-14T05:00:37.593Z,100954.03
2022-10-14T05:01:39.321Z,100955.84
2022-10-14T05:02:41.881Z,100952.31
2022-10-14T05:03:43.624Z,100958.63
2022-10-14T05:04:46.093Z,100949.81
2022-10-14T05:05:47.615Z,100955.16
2022-10-14T05:06:50.149Z,100955.97
2022-10-14T05:07:52.970Z,100950.63
2022-10-14T05:08:55.611Z,100941.66
2022-10-14T05:09:57.246Z,100949.66
2022-10-14T05:11:00.072Z,100951.47
2022-10-14T05:12:01.645Z,100943.63
2022-10-14T05:13:04.244Z,100943.63
2022-10-14T05:14:07.047Z,100935.63
2022-10-14T05:15:09.558Z,100943.63
2022-10-14T05:16:12.138Z,100940.09
2022-10-14T05:17:14.252Z,100942.78
2022-10-14T05:18:16.784Z,100940.09
2022-10-14T05:19:18.339Z,100937.56
2022-10-14T05:20:21.176Z,100940.09
2022-10-14T05:21:22.805Z,100928.47
2022-10-14T05:22:25.627Z,100939.94
2022-10-14T05:23:28.503Z,100935.47
2022-10-14T05:24:31.038Z,100930.13
2022-10-14T05:25:32.577Z,100928.28
2022-10-14T05:26:35.092Z,100932.66
2022-10-14T05:27:36.572Z,100930.97
2022-10-14T05:28:39.177Z,100925.63
2022-10-14T05:29:40.840Z,100919.44
2022-10-14T05:30:43.357Z,100930.13
2022-10-14T05:31:44.924Z,100918.59
2022-10-14T05:32:47.431Z,100920.44
2022-10-14T05:33:48.957Z,100922.28
2022-10-14T05:34:51.437Z,100921.25
2022-10-14T05:36:00.147Z,100926.59
2022-10-14T05:37:02.787Z,100924.78
2022-10-14T05:38:05.944Z,100931.81
2022-10-14T05:39:09.236Z,100928.16
2022-10-14T05:40:12.254Z,100927.31
2022-10-14T05:41:13.824Z,100928.16
2022-10-14T05:42:16.379Z,100924.66
2022-10-14T05:43:17.862Z,100930.69
2022-10-14T05:44:20.333Z,100930.69
2022-10-14T05:45:22.023Z,100928.00
2022-10-14T05:46:24.554Z,100932.38
2022-10-14T05:47:26.129Z,100932.38
2022-10-14T05:48:28.734Z,100934.06
2022-10-14T05:49:31.224Z,100922.38
2022-10-14T05:50:32.728Z,100918.06
2022-10-14T05:51:35.239Z,100920.56
2022-10-14T05:52:37.259Z,100914.38
2022-10-14T05:53:40.124Z,100919.72
2022-10-14T05:54:42.996Z,100914.38
2022-10-14T05:55:46.312Z,100913.69
2022-10-14T05:56:47.909Z,100915.38
2022-10-14T05:57:50.700Z,100912.72
2022-10-14T05:58:52.277Z,100911.84
2022-10-14T05:59:54.840Z,100912.72
2022-10-14T06:00:59.552Z,100906.53
2022-10-14T06:02:02.828Z,100910.03
2022-10-14T06:03:04.624Z,100902.03
2022-10-14T06:04:07.990Z,100907.38
2022-10-14T06:05:09.708Z,100909.03
2022-10-14T06:06:13.965Z,100904.53
2022-10-14T06:07:15.658Z,100903.56
2022-10-14T06:08:18.285Z,100902.56
2022-10-14T06:09:20.208Z,100914.25
2022-10-14T06:10:24.246Z,100903.41
2022-10-14T06:11:26.029Z,100908.75
2022-10-14T06:12:28.949Z,100906.91
2022-10-14T06:13:30.594Z,100902.41
2022-10-14T06:14:33.201Z,100904.13
2022-10-14T06:15:34.860Z,100906.78
2022-10-14T06:16:37.379Z,100903.09
2022-10-14T06:17:38.909Z,100899.47
2022-10-14T06:18:42.780Z,100902.97
2022-10-14T06:19:45.484Z,100901.16
2022-10-14T06:20:51.974Z,100902.81
2022-10-14T06:21:54.746Z,100906.50
2022-10-14T06:22:56.273Z,100903.66
2022-10-14T06:23:58.761Z,100894.69
2022-10-14T06:25:03.969Z,100900.88
2022-10-14T06:26:09.945Z,100898.19
2022-10-14T06:27:11.532Z,100902.56
2022-10-14T06:28:14.208Z,100898.03
2022-10-14T06:29:17.292Z,100897.22
2022-10-14T06:30:19.881Z,100895.34
2022-10-14T06:31:21.473Z,100903.38
2022-10-14T06:32:24.393Z,100904.22
2022-10-14T06:33:28.470Z,100904.22
2022-10-14T06:34:30.959Z,100899.03
2022-10-14T06:35:32.780Z,100899.88
2022-10-14T06:36:35.806Z,100900.88
2022-10-14T06:37:38.778Z,100900.88
2022-10-14T06:38:43.637Z,100902.56
2022-10-14T06:39:45.242Z,100903.38
2022-10-14T06:40:47.991Z,100902.56
2022-10-14T06:41:50.890Z,100904.22
2022-10-14T06:42:53.717Z,100896.22
2022-10-14T06:43:56.207Z,100903.25
2022-10-14T06:44:57.821Z,100893.53
2022-10-14T06:46:00.463Z,100887.22
2022-10-14T06:47:02.081Z,100891.59
2022-10-14T06:48:05.302Z,100895.91
2022-10-14T06:49:06.872Z,100896.63
2022-10-14T06:50:09.379Z,100899.28
2022-10-14T06:51:11.887Z,100898.28
2022-10-14T06:52:13.536Z,100892.94
2022-10-14T06:53:16.036Z,100897.31
2022-10-14T06:54:17.583Z,100898.16
2022-10-14T06:55:20.105Z,100897.31
2022-10-14T06:56:21.612Z,100893.66
2022-10-14T06:57:25.750Z,100897.19
2022-10-14T06:58:27.643Z,100887.31
2022-10-14T06:59:30.113Z,100885.66
2022-10-14T07:00:32.604Z,100888.31
2022-10-14T07:01:34.197Z,100891.00
2022-10-14T07:02:38.340Z,100888.31
2022-10-14T07:03:40.835Z,100886.50
2022-10-14T07:04:42.339Z,100883.97
2022-10-14T07:05:44.796Z,100886.63
2022-10-14T07:06:47.536Z,100887.59
2022-10-14T07:07:51.111Z,100887.59
2022-10-14T07:08:54.023Z,100878.63
2022-10-14T07:09:58.003Z,100886.63
2022-10-14T07:11:00.095Z,100886.50
2022-10-14T07:12:03.076Z,100881.16
2022-10-14T07:13:06.190Z,100880.16
2022-10-14T07:14:09.508Z,100882.81
2022-10-14T07:15:11.078Z,100880.16
2022-10-14T07:16:13.666Z,100877.34
2022-10-14T07:17:15.178Z,100876.38
2022-10-14T07:18:17.639Z,100878.03
2022-10-14T07:19:19.522Z,100877.06
2022-10-14T07:20:22.196Z,100880.41
2022-10-14T07:21:24.644Z,100876.88
2022-10-14T07:22:27.149Z,100875.78
2022-10-14T07:23:28.707Z,100882.78
2022-10-14T07:24:31.188Z,100882.78
2022-10-14T07:25:32.941Z,100876.63
2022-10-14T07:26:35.592Z,100879.28
2022-10-14T07:27:37.283Z,100882.78
2022-10-14T07:28:41.210Z,100880.09
2022-10-14T07:29:42.865Z,100877.44
2022-10-14T07:30:45.323Z,100881.81
2022-10-14T07:31:47.853Z,100885.44
2022-10-14T07:32:49.376Z,100877.31
2022-10-14T07:33:51.837Z,100863.94
2022-10-14T07:34:53.393Z,100873.66
2022-10-14T07:35:55.973Z,100873.53
2022-10-14T07:36:57.574Z,100874.50
2022-10-14T07:38:00.833Z,100870.72
2022-10-14T07:39:02.893Z,100876.91
2022-10-14T07:40:06.562Z,100866.06
2022-10-14T07:41:16.739Z,100867.75
2022-10-14T07:43:26.748Z,100869.28
2022-10-14T07:44:29.638Z,100872.63
2022-10-14T07:45:35.602Z,100871.50
2022-10-14T07:46:39.391Z,100869.66
2022-10-14T07:47:41.853Z,100878.53
2022-10-14T07:48:56.757Z,100874.03
2022-10-14T07:50:01.261Z,100878.38
2022-10-14T07:51:03.004Z,100886.41
2022-10-14T07:52:06.128Z,100877.66
2022-10-14T07:53:07.653Z,100882.03
2022-10-14T07:54:14.056Z,100874.88
2022-10-14T07:55:15.710Z,100889.91
2022-10-14T07:56:18.381Z,100889.91
2022-10-14T07:57:23.899Z,100884.72
2022-10-14T07:58:30.520Z,100890.06
2022-10-14T07:59:33.521Z,100892.59
2022-10-14T08:00:36.424Z,100888.06
2022-10-14T08:01:38.369Z,100886.41
2022-10-14T08:02:41.189Z,100888.22
2022-10-14T08:03:45.624Z,100888.22
2022-10-14T08:04:48.234Z,100881.19
2022-10-14T08:05:50.332Z,100879.38
2022-10-14T08:06:54.421Z,100878.38
2022-10-14T08:07:57.750Z,100876.56
2022-10-14T08:09:00.563Z,100880.03
2022-10-14T08:10:02.939Z,100873.72
2022-10-14T08:11:08.011Z,100877.25
2022-10-14T08:12:09.742Z,100877.09
2022-10-14T08:13:12.213Z,100870.91
2022-10-14T08:14:14.032Z,100875.13
2022-10-14T08:15:18.079Z,100870.63
2022-10-14T08:16:21.414Z,100871.47
2022-10-14T08:17:23.940Z,100871.47
2022-10-14T08:18:26.329Z,100868.78
2022-10-14T08:19:28.780Z,100863.28
2022-10-14T08:20:30.424Z,100856.97
2022-10-14T08:21:32.970Z,100857.63
2022-10-14T08:22:34.820Z,100856.50
2022-10-14T08:23:37.289Z,100852.84
2022-10-14T08:24:39.839Z,100855.38
2022-10-14T08:25:41.848Z,100852.53
2022-10-14T08:26:51.100Z,100851.56
2022-10-14T08:27:54.084Z,100846.03
2022-10-14T08:28:56.745Z,100844.91
2022-10-14T08:29:58.373Z,100848.28
2022-10-14T08:31:02.200Z,100841.78
2022-10-14T08:32:03.980Z,100847.53
2022-10-14T08:33:06.443Z,100846.50
2022-10-14T08:34:08.021Z,100848.06
2022-10-14T08:35:12.695Z,100846.25
2022-10-14T08:36:16.091Z,100847.75
2022-10-14T08:37:18.627Z,100835.38
2022-10-14T08:38:25.003Z,100834.41
2022-10-14T08:39:27.750Z,100831.56
2022-10-14T08:40:30.654Z,100829.72
2022-10-14T08:41:46.803Z,100835.78
2022-10-14T08:42:54.645Z,100828.44
2022-10-14T08:44:08.822Z,100826.44
2022-10-14T08:45:16.062Z,100829.81
2022-10-14T08:46:26.612Z,100824.47
2022-10-14T08:47:36.624Z,100825.16
2022-10-14T08:48:38.954Z,100826.00
2022-10-14T08:49:53.485Z,100829.34
2022-10-14T08:50:59.825Z,100835.53
2022-10-14T08:52:07.068Z,100828.34
2022-10-14T08:53:14.503Z,100822.16
2022-10-14T08:54:29.339Z,100823.16
2022-10-14T08:55:36.583Z,100831.16
2022-10-14T08:56:39.406Z,100831.16
2022-10-14T08:57:47.846Z,100831.16
2022-10-14T08:58:52.500Z,100834.00
2022-10-14T08:59:54.402Z,100833.16
2022-10-14T09:00:57.806Z,100838.69
2022-10-14T09:02:04.393Z,100825.31
2022-10-14T09:03:16.923Z,100821.78
2022-10-14T09:04:20.053Z,100813.78
2022-10-14T09:05:23.773Z,100818.94
2022-10-14T09:06:28.533Z,100811.63
2022-10-14T09:07:31.894Z,100815.84
2022-10-14T09:08:38.393Z,100811.16
2022-10-14T09:09:42.436Z,100812.53
2022-10-14T09:10:45.464Z,100824.63
2022-10-14T09:11:51.783Z,100822.63
2022-10-14T09:12:57.754Z,100823.47
2022-10-14T09:14:01.766Z,100818.97
2022-10-14T09:15:12.113Z,100812.31
2022-10-14T09:16:20.258Z,100808.47
2022-10-14T09:17:27.426Z,100804.66
2022-10-14T09:18:36.302Z,100798.31
2022-10-14T09:19:46.815Z,100800.69
2022-10-14T09:20:49.686Z,100803.34
2022-10-14T09:21:54.737Z,100798.84
2022-10-14T09:23:07.205Z,100800.50
2022-10-14T09:24:13.469Z,100802.19
2022-10-14T09:25:17.602Z,100803.03
2022-10-14T09:26:20.010Z,100796.53
2022-10-14T09:27:24.056Z,100796.38
2022-10-14T09:28:36.108Z,100797.06
2022-10-14T09:29:43.999Z,100799.63
2022-10-14T09:30:45.637Z,100804.97
2022-10-14T09:31:48.947Z,100799.44
2022-10-14T09:32:55.523Z,100811.66
2022-10-14T09:33:57.160Z,100797.44
2022-10-14T09:35:00.843Z,100794.50
2022-10-14T09:36:02.495Z,100799.66
2022-10-14T09:37:23.725Z,100796.84
2022-10-14T09:38:27.842Z,100801.88
2022-10-14T09:39:30.863Z,100797.38
2022-10-14T09:40:36.192Z,100793.53
2022-10-14T09:41:38.985Z,100801.41
2022-10-14T09:42:49.831Z,100796.88
2022-10-14T09:44:21.145Z,100795.19
2022-10-14T09:45:25.376Z,100792.69
2022-10-14T09:46:27.033Z,100798.88
2022-10-14T09:47:30.165Z,100789.84
2022-10-14T09:48:38.610Z,100788.72
2022-10-14T09:49:43.819Z,100785.84
2022-10-14T09:50:51.483Z,100789.06
2022-10-14T09:51:56.734Z,100778.22
2022-10-14T09:53:02.396Z,100776.88
2022-10-14T09:54:05.793Z,100781.25
2022-10-14T09:55:18.668Z,100785.44
2022-10-14T09:56:30.130Z,100777.56
2022-10-14T09:57:32.615Z,100782.75
2022-10-14T09:58:39.122Z,100775.56
2022-10-14T09:59:53.688Z,100779.25
2022-10-14T10:00:58.358Z,100772.88
2022-10-14T10:02:02.649Z,100781.75
2022-10-14T10:03:06.821Z,100782.59
2022-10-14T10:04:36.761Z,100778.09
2022-10-14T10:05:38.432Z,100784.44
2022-10-14T10:06:52.963Z,100778.25
2022-10-14T10:08:17.230Z,100777.56
2022-10-14T10:09:20.006Z,100781.25
2022-10-14T10:10:23.187Z,100784.91
2022-10-14T10:11:30.745Z,100778.56
2022-10-14T10:12:34.280Z,100777.72
2022-10-14T10:13:44.405Z,100777.56
2022-10-14T10:14:57.052Z,100778.56
2022-10-14T10:16:01.121Z,100772.22
2022-10-14T10:17:16.607Z,100774.72
2022-10-14T10:18:19.157Z,100771.06
2022-10-14T10:19:32.942Z,100769.88
2022-10-14T10:20:35.891Z,100772.25
2022-10-14T10:21:38.398Z,100765.59
2022-10-14T10:22:39.972Z,100759.75
2022-10-14T10:23:52.013Z,100758.28
2022-10-14T10:25:17.749Z,100765.97
2022-10-14T10:26:26.487Z,100765.50
2022-10-14T10:27:31.383Z,100759.66
2022-10-14T10:28:34.470Z,100757.34
2022-10-14T10:29:37.145Z,100756.69
2022-10-14T10:30:49.485Z,100761.56
2022-10-14T10:32:08.448Z,100759.38
2022-10-14T10:33:22.359Z,100752.69
2022-10-14T10:34:51.903Z,100757.91
2022-10-14T10:36:12.832Z,100757.72
2022-10-14T10:37:26.049Z,100747.00
2022-10-14T10:38:32.613Z,100752.38
2022-10-14T10:39:44.089Z,100751.38
2022-10-14T10:40:55.009Z,100755.06
2022-10-14T10:42:06.272Z,100743.50
2022-10-14T10:43:32.314Z,100749.34
2022-10-14T10:45:07.042Z,100740.63
2022-10-14T10:46:21.220Z,100743.63
2022-10-14T10:47:33.363Z,100745.31
2022-10-14T10:48:42.997Z,100747.84
2022-10-14T10:50:10.346Z,100738.78
2022-10-14T10:51:16.288Z,100745.84
2022-10-14T10:52:30.608Z,100737.94
2022-10-14T10:54:00.438Z,100736.28
2022-10-14T10:55:11.090Z,100732.75
2022-10-14T10:56:27.338Z,100732.91
2022-10-14T10:57:45.850Z,100733.94
2022-10-14T10:59:03.113Z,100728.56
2022-10-14T11:00:11.985Z,100728.72
2022-10-14T11:01:32.746Z,100726.22
2022-10-14T11:03:09.502Z,100727.22
2022-10-14T11:04:25.782Z,100716.84
2022-10-14T11:05:45.183Z,100715.13
2022-10-14T11:07:15.041Z,100715.13
2022-10-14T11:08:48.034Z,100714.31
2022-10-14T11:10:18.382Z,100714.31
2022-10-14T11:11:45.557Z,100720.69
2022-10-14T11:12:59.552Z,100712.78
2022-10-14T11:14:13.737Z,100724.81
2022-10-14T11:15:28.379Z,100715.47
2022-10-14T11:16:38.867Z,100721.81
2022-10-14T11:17:49.417Z,100711.25
2022-10-14T11:19:02.712Z,100717.78
2022-10-14T11:20:17.454Z,100718.09
2022-10-14T11:21:30.899Z,100718.09
2022-10-14T11:22:50.871Z,100713.91
2022-10-14T11:24:03.590Z,100710.53
2022-10-14T11:25:22.567Z,100705.34
2022-10-14T11:26:42.033Z,100720.59
2022-10-14T11:27:49.563Z,100702.69
2022-10-14T11:28:59.716Z,100708.03
2022-10-14T11:30:13.775Z,100702.69
2022-10-14T11:31:27.558Z,100699.00
2022-10-14T11:32:40.429Z,100700.66
2022-10-14T11:34:01.411Z,100696.16
2022-10-14T11:35:18.985Z,100700.34
2022-10-14T11:36:33.145Z,100694.84
2022-10-14T11:37:51.967Z,100695.50
2022-10-14T11:39:14.675Z,100698.03
2022-10-14T11:40:24.262Z,100691.50
2022-10-14T11:41:52.907Z,100701.22
2022-10-14T11:43:09.782Z,100687.00
2022-10-14T11:44:22.389Z,100690.34
2022-10-14T11:45:46.547Z,100690.34
2022-10-14T11:46:56.260Z,100684.13
2022-10-14T11:48:08.287Z,100683.31
2022-10-14T11:49:19.873Z,100677.28
2022-10-14T11:50:26.178Z,100678.28
2022-10-14T11:51:37.093Z,100678.44
2022-10-14T11:52:45.590Z,100685.47
2022-10-14T11:54:03.383Z,100672.94
2022-10-14T11:55:13.806Z,100677.97
2022-10-14T11:56:38.439Z,100675.94
2022-10-14T11:57:45.547Z,100672.28
2022-10-14T11:58:49.166Z,100671.09
2022-10-14T11:59:59.437Z,100675.28
2022-10-14T12:01:03.978Z,100674.44
2022-10-14T12:02:20.759Z,100668.94
2022-10-14T12:03:30.047Z,100664.25
2022-10-14T12:04:36.863Z,100668.59
2022-10-14T12:05:45.349Z,100664.09
2022-10-14T12:06:55.640Z,100669.28
2022-10-14T12:08:07.845Z,100666.91
2022-10-14T12:09:16.669Z,100672.28
2022-10-14T12:10:26.724Z,100669.59
2022-10-14T12:11:31.780Z,100666.25
2022-10-14T12:12:36.420Z,100666.06
2022-10-14T12:13:44.402Z,100662.56
2022-10-14T12:14:50.966Z,100670.44
2022-10-14T12:15:54.968Z,100662.56
2022-10-14T12:16:58.689Z,100658.88
2022-10-14T12:18:02.061Z,100658.88
2022-10-14T12:19:05.766Z,100660.56
2022-10-14T12:20:21.543Z,100661.41
2022-10-14T12:21:30.429Z,100658.56
2022-10-14T12:22:34.846Z,100660.25
2022-10-14T12:23:43.621Z,100653.19
2022-10-14T12:24:51.321Z,100656.91
2022-10-14T12:26:01.035Z,100647.84
2022-10-14T12:27:05.534Z,100653.53
2022-10-14T12:28:10.256Z,100648.16
2022-10-14T12:29:15.607Z,100647.31
2022-10-14T12:30:35.092Z,100642.81
2022-10-14T12:31:39.745Z,100633.78
2022-10-14T12:33:01.326Z,100638.44
2022-10-14T12:34:27.450Z,100637.78